sensor_id;sensor_type;location;lat;lon;timestamp;temperature;humidity
35607;DHT22;21729;58.392;15.656;2024-02-21T00:01:58;3.00;1.00
35607;DHT22;21729;58.392;15.656;2024-02-21T00:04:25;3.00;1.00
35607;DHT22;21729;58.392;15.656;2024-02-21T00:06:52;3.00;1.00
35607;DHT22;21729;58.392;15.656;2024-02-21T00:09:19;3.00;1.00
35607;DHT22;21729;58.392;15.656;2024-02-21T00:11:46;2.90;1.00
35607;DHT22;21729;58.392;15.656;2024-02-21T00:14:14;2.90;1.00
35607;DHT22;21729;58.392;15.656;2024-02-21T00:16:42;2.90;1.00
35607;DHT22;21729;58.392;15.656;2024-02-21T00:19:09;2.90;1.00
35607;DHT22;21729;58.392;15.656;2024-02-21T00:21:36;3.00;1.00
35607;DHT22;21729;58.392;15.656;2024-02-21T00:24:03;3.00;1.00
35607;DHT22;21729;58.392;15.656;2024-02-21T00:26:30;3.10;1.00
35607;DHT22;21729;58.392;15.656;2024-02-21T00:28:57;3.00;1.00
35607;DHT22;21729;58.392;15.656;2024-02-21T00:31:25;3.10;1.00
35607;DHT22;21729;58.392;15.656;2024-02-21T00:33:52;3.10;1.00
35607;DHT22;21729;58.392;15.656;2024-02-21T00:36:19;3.10;1.00
35607;DHT22;21729;58.392;15.656;2024-02-21T00:38:46;3.10;1.00
35607;DHT22;21729;58.392;15.656;2024-02-21T00:41:13;3.10;1.00
35607;DHT22;21729;58.392;15.656;2024-02-21T00:43:41;3.10;1.00
35607;DHT22;21729;58.392;15.656;2024-02-21T00:46:08;3.10;1.00
35607;DHT22;21729;58.392;15.656;2024-02-21T00:48:37;3.20;1.00
35607;DHT22;21729;58.392;15.656;2024-02-21T00:51:04;3.20;1.00
35607;DHT22;21729;58.392;15.656;2024-02-21T00:53:31;3.30;1.00
35607;DHT22;21729;58.392;15.656;2024-02-21T00:55:58;3.30;1.00
35607;DHT22;21729;58.392;15.656;2024-02-21T00:58:25;3.30;1.00
35607;DHT22;21729;58.392;15.656;2024-02-21T01:00:52;3.30;1.00
35607;DHT22;21729;58.392;15.656;2024-02-21T01:03:19;3.30;1.00
35607;DHT22;21729;58.392;15.656;2024-02-21T01:05:47;3.30;1.00
35607;DHT22;21729;58.392;15.656;2024-02-21T01:08:14;3.30;1.00
35607;DHT22;21729;58.392;15.656;2024-02-21T01:10:42;3.40;1.00
35607;DHT22;21729;58.392;15.656;2024-02-21T01:13:09;3.30;1.00
35607;DHT22;21729;58.392;15.656;2024-02-21T01:15:36;3.40;1.00
35607;DHT22;21729;58.392;15.656;2024-02-21T01:18:04;3.40;1.00
35607;DHT22;21729;58.392;15.656;2024-02-21T01:20:31;3.50;1.00
35607;DHT22;21729;58.392;15.656;2024-02-21T01:22:59;3.40;1.00
35607;DHT22;21729;58.392;15.656;2024-02-21T01:25:26;3.40;1.00
35607;DHT22;21729;58.392;15.656;2024-02-21T01:27:53;3.40;1.00
35607;DHT22;21729;58.392;15.656;2024-02-21T01:30:20;3.50;1.00
35607;DHT22;21729;58.392;15.656;2024-02-21T01:32:47;3.50;1.00
35607;DHT22;21729;58.392;15.656;2024-02-21T01:35:14;3.50;1.00
35607;DHT22;21729;58.392;15.656;2024-02-21T01:37:41;3.50;1.00
35607;DHT22;21729;58.392;15.656;2024-02-21T01:40:11;3.60;1.00
35607;DHT22;21729;58.392;15.656;2024-02-21T01:42:38;3.50;1.00
35607;DHT22;21729;58.392;15.656;2024-02-21T01:45:06;3.50;1.00
35607;DHT22;21729;58.392;15.656;2024-02-21T01:47:34;3.50;1.00
35607;DHT22;21729;58.392;15.656;2024-02-21T01:50:01;3.50;1.00
35607;DHT22;21729;58.392;15.656;2024-02-21T01:52:29;3.50;1.00
35607;DHT22;21729;58.392;15.656;2024-02-21T01:54:58;3.60;1.00
35607;DHT22;21729;58.392;15.656;2024-02-21T01:57:27;3.60;1.00
35607;DHT22;21729;58.392;15.656;2024-02-21T01:59:56;3.60;1.00
35607;DHT22;21729;58.392;15.656;2024-02-21T02:02:24;3.60;1.00
35607;DHT22;21729;58.392;15.656;2024-02-21T02:04:51;3.60;1.00
35607;DHT22;21729;58.392;15.656;2024-02-21T02:07:19;3.60;1.00
35607;DHT22;21729;58.392;15.656;2024-02-21T02:09:46;3.60;1.00
35607;DHT22;21729;58.392;15.656;2024-02-21T02:12:13;3.70;1.00
35607;DHT22;21729;58.392;15.656;2024-02-21T02:14:41;3.70;1.00
35607;DHT22;21729;58.392;15.656;2024-02-21T02:17:09;3.70;1.00
35607;DHT22;21729;58.392;15.656;2024-02-21T02:19:36;3.80;1.00
35607;DHT22;21729;58.392;15.656;2024-02-21T02:22:10;3.80;1.00
35607;DHT22;21729;58.392;15.656;2024-02-21T02:24:42;3.80;1.00
35607;DHT22;21729;58.392;15.656;2024-02-21T02:27:09;3.80;1.00
35607;DHT22;21729;58.392;15.656;2024-02-21T02:29:36;3.80;1.00
35607;DHT22;21729;58.392;15.656;2024-02-21T02:32:04;3.70;1.00
35607;DHT22;21729;58.392;15.656;2024-02-21T02:34:31;3.70;1.00
35607;DHT22;21729;58.392;15.656;2024-02-21T02:36:58;3.80;1.00
35607;DHT22;21729;58.392;15.656;2024-02-21T02:39:25;3.80;1.00
35607;DHT22;21729;58.392;15.656;2024-02-21T02:41:54;3.80;1.00
35607;DHT22;21729;58.392;15.656;2024-02-21T02:44:21;3.80;1.00
35607;DHT22;21729;58.392;15.656;2024-02-21T02:46:48;3.80;1.00
35607;DHT22;21729;58.392;15.656;2024-02-21T02:49:15;3.80;1.00
35607;DHT22;21729;58.392;15.656;2024-02-21T02:51:43;3.80;1.00
35607;DHT22;21729;58.392;15.656;2024-02-21T02:54:10;3.80;1.00
35607;DHT22;21729;58.392;15.656;2024-02-21T02:56:38;3.80;1.00
35607;DHT22;21729;58.392;15.656;2024-02-21T02:59:06;3.90;1.00
35607;DHT22;21729;58.392;15.656;2024-02-21T03:01:34;3.90;1.00
35607;DHT22;21729;58.392;15.656;2024-02-21T03:04:02;3.90;1.00
35607;DHT22;21729;58.392;15.656;2024-02-21T03:06:29;3.90;1.00
35607;DHT22;21729;58.392;15.656;2024-02-21T03:08:56;3.90;1.00
35607;DHT22;21729;58.392;15.656;2024-02-21T03:11:23;3.90;1.00
35607;DHT22;21729;58.392;15.656;2024-02-21T03:13:54;3.90;1.00
35607;DHT22;21729;58.392;15.656;2024-02-21T03:16:23;3.90;1.00
35607;DHT22;21729;58.392;15.656;2024-02-21T03:18:50;3.90;1.00
35607;DHT22;21729;58.392;15.656;2024-02-21T03:21:17;3.80;1.00
35607;DHT22;21729;58.392;15.656;2024-02-21T03:23:44;3.80;1.00
35607;DHT22;21729;58.392;15.656;2024-02-21T03:26:11;3.90;1.00
35607;DHT22;21729;58.392;15.656;2024-02-21T03:28:42;3.90;1.00
35607;DHT22;21729;58.392;15.656;2024-02-21T03:31:11;3.90;1.00
35607;DHT22;21729;58.392;15.656;2024-02-21T03:33:40;3.90;1.00
35607;DHT22;21729;58.392;15.656;2024-02-21T03:36:13;3.90;1.00
35607;DHT22;21729;58.392;15.656;2024-02-21T03:38:40;4.00;1.00
35607;DHT22;21729;58.392;15.656;2024-02-21T03:41:07;4.00;1.00
35607;DHT22;21729;58.392;15.656;2024-02-21T03:43:34;4.00;1.00
35607;DHT22;21729;58.392;15.656;2024-02-21T03:46:01;4.00;1.00
35607;DHT22;21729;58.392;15.656;2024-02-21T03:48:28;4.00;1.00
35607;DHT22;21729;58.392;15.656;2024-02-21T03:50:56;3.90;1.00
35607;DHT22;21729;58.392;15.656;2024-02-21T03:53:23;4.00;1.00
35607;DHT22;21729;58.392;15.656;2024-02-21T03:55:50;4.00;1.00
35607;DHT22;21729;58.392;15.656;2024-02-21T03:58:17;4.00;1.00
35607;DHT22;21729;58.392;15.656;2024-02-21T04:00:44;4.00;1.00
35607;DHT22;21729;58.392;15.656;2024-02-21T04:03:11;4.10;1.00
35607;DHT22;21729;58.392;15.656;2024-02-21T04:05:39;4.10;1.00
35607;DHT22;21729;58.392;15.656;2024-02-21T04:08:07;4.10;1.00
35607;DHT22;21729;58.392;15.656;2024-02-21T04:10:34;4.00;1.00
35607;DHT22;21729;58.392;15.656;2024-02-21T04:13:02;4.10;1.00
35607;DHT22;21729;58.392;15.656;2024-02-21T04:15:29;4.10;1.00
35607;DHT22;21729;58.392;15.656;2024-02-21T04:17:56;4.10;1.00
35607;DHT22;21729;58.392;15.656;2024-02-21T04:20:23;4.10;1.00
35607;DHT22;21729;58.392;15.656;2024-02-21T04:22:50;4.10;1.00
35607;DHT22;21729;58.392;15.656;2024-02-21T04:25:18;4.00;1.00
35607;DHT22;21729;58.392;15.656;2024-02-21T04:27:46;4.00;1.00
35607;DHT22;21729;58.392;15.656;2024-02-21T04:30:13;4.00;1.00
35607;DHT22;21729;58.392;15.656;2024-02-21T04:32:41;4.10;1.00
35607;DHT22;21729;58.392;15.656;2024-02-21T04:35:08;4.10;1.00
35607;DHT22;21729;58.392;15.656;2024-02-21T04:37:35;4.10;1.00
35607;DHT22;21729;58.392;15.656;2024-02-21T04:40:03;4.10;1.00
35607;DHT22;21729;58.392;15.656;2024-02-21T04:42:31;4.10;1.00
35607;DHT22;21729;58.392;15.656;2024-02-21T04:44:58;4.10;1.00
35607;DHT22;21729;58.392;15.656;2024-02-21T04:47:25;4.10;1.00
35607;DHT22;21729;58.392;15.656;2024-02-21T04:49:52;4.10;1.00
35607;DHT22;21729;58.392;15.656;2024-02-21T04:52:19;4.10;1.00
35607;DHT22;21729;58.392;15.656;2024-02-21T04:54:47;4.10;1.00
35607;DHT22;21729;58.392;15.656;2024-02-21T04:57:14;4.10;1.00
35607;DHT22;21729;58.392;15.656;2024-02-21T04:59:44;4.10;1.00
35607;DHT22;21729;58.392;15.656;2024-02-21T05:02:11;4.10;1.00
35607;DHT22;21729;58.392;15.656;2024-02-21T05:04:38;4.10;1.00
35607;DHT22;21729;58.392;15.656;2024-02-21T05:07:07;4.20;1.00
35607;DHT22;21729;58.392;15.656;2024-02-21T05:09:36;4.20;1.00
35607;DHT22;21729;58.392;15.656;2024-02-21T05:12:04;4.20;1.00
35607;DHT22;21729;58.392;15.656;2024-02-21T05:14:31;4.10;1.00
35607;DHT22;21729;58.392;15.656;2024-02-21T05:16:59;4.20;1.00
35607;DHT22;21729;58.392;15.656;2024-02-21T05:19:26;4.10;1.00
35607;DHT22;21729;58.392;15.656;2024-02-21T05:21:53;4.20;1.00
35607;DHT22;21729;58.392;15.656;2024-02-21T05:24:20;4.20;1.00
35607;DHT22;21729;58.392;15.656;2024-02-21T05:26:47;4.20;1.00
35607;DHT22;21729;58.392;15.656;2024-02-21T05:29:14;4.20;1.00
35607;DHT22;21729;58.392;15.656;2024-02-21T05:31:55;4.20;1.00
35607;DHT22;21729;58.392;15.656;2024-02-21T05:34:24;4.20;1.00
35607;DHT22;21729;58.392;15.656;2024-02-21T05:36:52;4.20;1.00
35607;DHT22;21729;58.392;15.656;2024-02-21T05:39:19;4.20;1.00
35607;DHT22;21729;58.392;15.656;2024-02-21T05:41:48;4.20;1.00
35607;DHT22;21729;58.392;15.656;2024-02-21T05:44:16;4.20;1.00
35607;DHT22;21729;58.392;15.656;2024-02-21T05:46:43;4.30;1.00
35607;DHT22;21729;58.392;15.656;2024-02-21T05:49:10;4.20;1.00
35607;DHT22;21729;58.392;15.656;2024-02-21T05:51:39;4.20;1.00
35607;DHT22;21729;58.392;15.656;2024-02-21T05:54:06;4.20;1.00
35607;DHT22;21729;58.392;15.656;2024-02-21T05:56:34;4.30;1.00
35607;DHT22;21729;58.392;15.656;2024-02-21T05:59:01;4.20;1.00
35607;DHT22;21729;58.392;15.656;2024-02-21T06:01:28;4.30;1.00
35607;DHT22;21729;58.392;15.656;2024-02-21T06:03:55;4.30;1.00
35607;DHT22;21729;58.392;15.656;2024-02-21T06:06:22;4.30;1.00
35607;DHT22;21729;58.392;15.656;2024-02-21T06:08:50;4.20;1.00
35607;DHT22;21729;58.392;15.656;2024-02-21T06:11:17;4.20;1.00
35607;DHT22;21729;58.392;15.656;2024-02-21T06:13:44;4.20;1.00
35607;DHT22;21729;58.392;15.656;2024-02-21T06:16:12;4.20;1.00
35607;DHT22;21729;58.392;15.656;2024-02-21T06:18:39;4.20;1.00
35607;DHT22;21729;58.392;15.656;2024-02-21T06:21:06;4.30;1.00
35607;DHT22;21729;58.392;15.656;2024-02-21T06:23:33;4.30;1.00
35607;DHT22;21729;58.392;15.656;2024-02-21T06:26:07;4.20;1.00
35607;DHT22;21729;58.392;15.656;2024-02-21T06:28:34;4.30;1.00
35607;DHT22;21729;58.392;15.656;2024-02-21T06:31:01;4.30;1.00
35607;DHT22;21729;58.392;15.656;2024-02-21T06:33:28;4.30;1.00
35607;DHT22;21729;58.392;15.656;2024-02-21T06:35:56;4.30;1.00
35607;DHT22;21729;58.392;15.656;2024-02-21T06:38:23;4.30;1.00
35607;DHT22;21729;58.392;15.656;2024-02-21T06:40:50;4.30;1.00
35607;DHT22;21729;58.392;15.656;2024-02-21T06:43:20;4.30;1.00
35607;DHT22;21729;58.392;15.656;2024-02-21T06:45:48;4.30;1.00
35607;DHT22;21729;58.392;15.656;2024-02-21T06:48:17;4.30;1.00
35607;DHT22;21729;58.392;15.656;2024-02-21T06:50:45;4.30;1.00
35607;DHT22;21729;58.392;15.656;2024-02-21T06:53:12;4.40;1.00
35607;DHT22;21729;58.392;15.656;2024-02-21T06:55:39;4.40;1.00
35607;DHT22;21729;58.392;15.656;2024-02-21T06:58:06;4.40;1.00
35607;DHT22;21729;58.392;15.656;2024-02-21T07:00:38;4.40;1.00
35607;DHT22;21729;58.392;15.656;2024-02-21T07:03:06;4.40;1.00
35607;DHT22;21729;58.392;15.656;2024-02-21T07:05:33;4.40;1.00
35607;DHT22;21729;58.392;15.656;2024-02-21T07:08:00;4.40;1.10
35607;DHT22;21729;58.392;15.656;2024-02-21T07:10:27;4.40;6.90
35607;DHT22;21729;58.392;15.656;2024-02-21T07:12:54;4.40;7.50
35607;DHT22;21729;58.392;15.656;2024-02-21T07:15:21;4.40;7.00
35607;DHT22;21729;58.392;15.656;2024-02-21T07:17:53;4.40;9.90
35607;DHT22;21729;58.392;15.656;2024-02-21T07:20:20;4.40;12.90
35607;DHT22;21729;58.392;15.656;2024-02-21T07:22:47;4.50;18.10
35607;DHT22;21729;58.392;15.656;2024-02-21T07:25:14;4.60;20.30
35607;DHT22;21729;58.392;15.656;2024-02-21T07:27:43;4.60;24.00
35607;DHT22;21729;58.392;15.656;2024-02-21T07:30:10;4.70;26.60
35607;DHT22;21729;58.392;15.656;2024-02-21T07:32:37;4.80;27.60
35607;DHT22;21729;58.392;15.656;2024-02-21T07:35:07;4.80;31.30
35607;DHT22;21729;58.392;15.656;2024-02-21T07:37:36;4.80;20.50
35607;DHT22;21729;58.392;15.656;2024-02-21T07:40:05;4.90;26.30
35607;DHT22;21729;58.392;15.656;2024-02-21T07:42:32;4.80;22.10
35607;DHT22;21729;58.392;15.656;2024-02-21T07:44:59;4.90;17.80
35607;DHT22;21729;58.392;15.656;2024-02-21T07:47:26;4.80;13.80
35607;DHT22;21729;58.392;15.656;2024-02-21T07:49:53;4.80;8.10
35607;DHT22;21729;58.392;15.656;2024-02-21T07:52:21;4.90;11.30
35607;DHT22;21729;58.392;15.656;2024-02-21T07:54:48;4.80;6.80
35607;DHT22;21729;58.392;15.656;2024-02-21T07:57:15;4.80;8.50
35607;DHT22;21729;58.392;15.656;2024-02-21T07:59:42;4.90;9.00
35607;DHT22;21729;58.392;15.656;2024-02-21T08:02:09;5.00;10.50
35607;DHT22;21729;58.392;15.656;2024-02-21T08:04:37;5.00;6.60
35607;DHT22;21729;58.392;15.656;2024-02-21T08:07:04;5.00;3.30
35607;DHT22;21729;58.392;15.656;2024-02-21T08:09:32;5.10;6.60
35607;DHT22;21729;58.392;15.656;2024-02-21T08:12:00;5.10;1.00
35607;DHT22;21729;58.392;15.656;2024-02-21T08:14:27;5.20;1.70
35607;DHT22;21729;58.392;15.656;2024-02-21T08:16:54;5.20;1.00
35607;DHT22;21729;58.392;15.656;2024-02-21T08:19:22;5.20;1.00
35607;DHT22;21729;58.392;15.656;2024-02-21T08:21:49;5.20;1.00
35607;DHT22;21729;58.392;15.656;2024-02-21T08:24:16;5.30;1.00
35607;DHT22;21729;58.392;15.656;2024-02-21T08:26:45;5.40;1.00
35607;DHT22;21729;58.392;15.656;2024-02-21T08:29:12;5.40;1.00
35607;DHT22;21729;58.392;15.656;2024-02-21T08:31:39;5.40;1.00
35607;DHT22;21729;58.392;15.656;2024-02-21T08:34:06;5.40;1.00
35607;DHT22;21729;58.392;15.656;2024-02-21T08:36:34;5.40;1.00
35607;DHT22;21729;58.392;15.656;2024-02-21T08:39:03;5.50;1.00
35607;DHT22;21729;58.392;15.656;2024-02-21T08:41:31;5.50;1.00
35607;DHT22;21729;58.392;15.656;2024-02-21T08:44:00;5.40;1.00
35607;DHT22;21729;58.392;15.656;2024-02-21T08:46:27;5.40;1.00
35607;DHT22;21729;58.392;15.656;2024-02-21T08:48:54;5.40;1.00
35607;DHT22;21729;58.392;15.656;2024-02-21T08:51:22;5.50;1.00
35607;DHT22;21729;58.392;15.656;2024-02-21T08:53:49;5.50;1.00
35607;DHT22;21729;58.392;15.656;2024-02-21T08:56:17;5.50;1.00
35607;DHT22;21729;58.392;15.656;2024-02-21T08:58:44;5.50;1.00
35607;DHT22;21729;58.392;15.656;2024-02-21T09:01:13;5.50;1.00
35607;DHT22;21729;58.392;15.656;2024-02-21T09:03:41;5.50;1.00
35607;DHT22;21729;58.392;15.656;2024-02-21T09:06:12;5.40;1.00
35607;DHT22;21729;58.392;15.656;2024-02-21T09:08:39;5.40;1.00
35607;DHT22;21729;58.392;15.656;2024-02-21T09:11:06;5.40;1.00
35607;DHT22;21729;58.392;15.656;2024-02-21T09:13:33;5.50;1.00
35607;DHT22;21729;58.392;15.656;2024-02-21T09:16:00;5.50;1.00
35607;DHT22;21729;58.392;15.656;2024-02-21T09:18:29;5.60;1.00
35607;DHT22;21729;58.392;15.656;2024-02-21T09:20:56;5.60;1.00
35607;DHT22;21729;58.392;15.656;2024-02-21T09:23:24;5.60;1.00
35607;DHT22;21729;58.392;15.656;2024-02-21T09:25:51;5.70;1.00
35607;DHT22;21729;58.392;15.656;2024-02-21T09:28:18;5.70;1.00
35607;DHT22;21729;58.392;15.656;2024-02-21T09:30:45;5.70;1.00
35607;DHT22;21729;58.392;15.656;2024-02-21T09:33:12;5.60;1.00
35607;DHT22;21729;58.392;15.656;2024-02-21T09:35:41;5.60;1.00
35607;DHT22;21729;58.392;15.656;2024-02-21T09:38:08;5.70;1.00
35607;DHT22;21729;58.392;15.656;2024-02-21T09:40:35;5.70;1.00
35607;DHT22;21729;58.392;15.656;2024-02-21T09:43:04;5.80;1.00
35607;DHT22;21729;58.392;15.656;2024-02-21T09:45:33;5.80;1.00
35607;DHT22;21729;58.392;15.656;2024-02-21T09:48:20;6.00;1.00
35607;DHT22;21729;58.392;15.656;2024-02-21T09:50:55;6.10;1.00
35607;DHT22;21729;58.392;15.656;2024-02-21T09:53:24;6.30;1.00
35607;DHT22;21729;58.392;15.656;2024-02-21T09:55:52;6.50;1.00
35607;DHT22;21729;58.392;15.656;2024-02-21T09:58:20;6.60;99.90
35607;DHT22;21729;58.392;15.656;2024-02-21T10:00:47;6.50;99.90
35607;DHT22;21729;58.392;15.656;2024-02-21T10:03:14;6.60;99.90
35607;DHT22;21729;58.392;15.656;2024-02-21T10:05:47;6.60;99.90
35607;DHT22;21729;58.392;15.656;2024-02-21T10:08:16;6.50;99.90
35607;DHT22;21729;58.392;15.656;2024-02-21T10:10:43;6.50;99.90
35607;DHT22;21729;58.392;15.656;2024-02-21T10:13:11;6.50;99.90
35607;DHT22;21729;58.392;15.656;2024-02-21T10:16:00;6.50;99.90
35607;DHT22;21729;58.392;15.656;2024-02-21T10:18:27;6.30;99.90
35607;DHT22;21729;58.392;15.656;2024-02-21T10:21:01;6.30;99.90
35607;DHT22;21729;58.392;15.656;2024-02-21T10:23:29;6.20;99.90
35607;DHT22;21729;58.392;15.656;2024-02-21T10:26:05;6.10;99.90
35607;DHT22;21729;58.392;15.656;2024-02-21T10:28:32;6.10;99.90
35607;DHT22;21729;58.392;15.656;2024-02-21T10:30:59;6.00;99.90
35607;DHT22;21729;58.392;15.656;2024-02-21T10:33:26;6.00;99.90
35607;DHT22;21729;58.392;15.656;2024-02-21T10:35:54;6.00;99.90
35607;DHT22;21729;58.392;15.656;2024-02-21T10:38:21;6.00;99.90
35607;DHT22;21729;58.392;15.656;2024-02-21T10:40:49;5.90;99.90
35607;DHT22;21729;58.392;15.656;2024-02-21T10:43:19;6.00;99.90
35607;DHT22;21729;58.392;15.656;2024-02-21T10:45:47;6.00;99.90
35607;DHT22;21729;58.392;15.656;2024-02-21T10:48:22;6.10;1.00
35607;DHT22;21729;58.392;15.656;2024-02-21T10:50:56;6.30;1.00
35607;DHT22;21729;58.392;15.656;2024-02-21T10:53:44;6.40;1.40
35607;DHT22;21729;58.392;15.656;2024-02-21T10:56:21;6.40;99.90
35607;DHT22;21729;58.392;15.656;2024-02-21T10:58:49;6.40;99.90
35607;DHT22;21729;58.392;15.656;2024-02-21T11:01:18;6.40;99.90
35607;DHT22;21729;58.392;15.656;2024-02-21T11:03:47;6.30;99.90
35607;DHT22;21729;58.392;15.656;2024-02-21T11:06:16;6.30;99.90
35607;DHT22;21729;58.392;15.656;2024-02-21T11:08:45;6.30;99.90
35607;DHT22;21729;58.392;15.656;2024-02-21T11:11:13;6.30;99.90
35607;DHT22;21729;58.392;15.656;2024-02-21T11:13:46;6.30;99.90
35607;DHT22;21729;58.392;15.656;2024-02-21T11:16:22;6.20;99.90
35607;DHT22;21729;58.392;15.656;2024-02-21T11:18:49;6.20;99.90
35607;DHT22;21729;58.392;15.656;2024-02-21T11:21:16;6.10;99.90
35607;DHT22;21729;58.392;15.656;2024-02-21T11:23:43;6.10;99.90
35607;DHT22;21729;58.392;15.656;2024-02-21T11:26:17;6.10;99.90
35607;DHT22;21729;58.392;15.656;2024-02-21T11:28:56;6.00;99.90
35607;DHT22;21729;58.392;15.656;2024-02-21T11:31:23;6.00;99.90
35607;DHT22;21729;58.392;15.656;2024-02-21T11:33:52;6.10;99.90
35607;DHT22;21729;58.392;15.656;2024-02-21T11:36:26;6.20;99.90
35607;DHT22;21729;58.392;15.656;2024-02-21T11:38:54;6.20;99.90
35607;DHT22;21729;58.392;15.656;2024-02-21T11:41:21;6.20;1.00
35607;DHT22;21729;58.392;15.656;2024-02-21T11:43:50;6.20;78.00
35607;DHT22;21729;58.392;15.656;2024-02-21T11:46:17;6.20;38.90
35607;DHT22;21729;58.392;15.656;2024-02-21T11:48:45;6.20;73.80
35607;DHT22;21729;58.392;15.656;2024-02-21T11:51:21;6.20;97.20
35607;DHT22;21729;58.392;15.656;2024-02-21T11:53:48;6.30;99.90
35607;DHT22;21729;58.392;15.656;2024-02-21T11:56:15;6.20;99.90
35607;DHT22;21729;58.392;15.656;2024-02-21T11:58:42;6.30;71.50
35607;DHT22;21729;58.392;15.656;2024-02-21T12:01:11;6.20;99.90
35607;DHT22;21729;58.392;15.656;2024-02-21T12:03:38;6.20;99.90
35607;DHT22;21729;58.392;15.656;2024-02-21T12:06:07;6.20;99.90
35607;DHT22;21729;58.392;15.656;2024-02-21T12:08:43;6.20;99.90
35607;DHT22;21729;58.392;15.656;2024-02-21T12:11:20;6.20;99.90
35607;DHT22;21729;58.392;15.656;2024-02-21T12:13:48;6.30;99.90
35607;DHT22;21729;58.392;15.656;2024-02-21T12:16:27;6.20;99.90
35607;DHT22;21729;58.392;15.656;2024-02-21T12:18:54;6.30;99.90
35607;DHT22;21729;58.392;15.656;2024-02-21T12:21:24;6.30;99.90
35607;DHT22;21729;58.392;15.656;2024-02-21T12:23:51;6.10;83.50
35607;DHT22;21729;58.392;15.656;2024-02-21T12:26:18;6.00;58.70
35607;DHT22;21729;58.392;15.656;2024-02-21T12:28:45;6.00;99.90
35607;DHT22;21729;58.392;15.656;2024-02-21T12:31:12;6.00;99.90
35607;DHT22;21729;58.392;15.656;2024-02-21T12:33:41;6.10;99.90
35607;DHT22;21729;58.392;15.656;2024-02-21T12:36:08;6.10;99.90
35607;DHT22;21729;58.392;15.656;2024-02-21T12:38:36;6.10;99.90
35607;DHT22;21729;58.392;15.656;2024-02-21T12:41:03;6.10;95.80
35607;DHT22;21729;58.392;15.656;2024-02-21T12:43:30;6.20;99.90
35607;DHT22;21729;58.392;15.656;2024-02-21T12:45:57;6.20;66.10
35607;DHT22;21729;58.392;15.656;2024-02-21T12:48:24;6.00;15.20
35607;DHT22;21729;58.392;15.656;2024-02-21T12:50:53;6.00;88.40
35607;DHT22;21729;58.392;15.656;2024-02-21T12:53:21;6.00;99.90
35607;DHT22;21729;58.392;15.656;2024-02-21T12:55:49;5.90;99.90
35607;DHT22;21729;58.392;15.656;2024-02-21T12:58:16;6.00;99.90
35607;DHT22;21729;58.392;15.656;2024-02-21T13:00:43;6.00;99.90
35607;DHT22;21729;58.392;15.656;2024-02-21T13:03:10;5.90;79.00
35607;DHT22;21729;58.392;15.656;2024-02-21T13:05:38;5.90;99.90
35607;DHT22;21729;58.392;15.656;2024-02-21T13:08:08;5.90;99.90
35607;DHT22;21729;58.392;15.656;2024-02-21T13:10:35;5.90;99.90
35607;DHT22;21729;58.392;15.656;2024-02-21T13:13:02;5.90;99.90
35607;DHT22;21729;58.392;15.656;2024-02-21T13:15:29;5.90;99.90
35607;DHT22;21729;58.392;15.656;2024-02-21T13:17:57;5.80;99.90
35607;DHT22;21729;58.392;15.656;2024-02-21T13:20:24;5.90;99.90
35607;DHT22;21729;58.392;15.656;2024-02-21T13:22:52;5.90;99.90
35607;DHT22;21729;58.392;15.656;2024-02-21T13:25:20;6.10;99.90
35607;DHT22;21729;58.392;15.656;2024-02-21T13:27:48;6.20;99.90
35607;DHT22;21729;58.392;15.656;2024-02-21T13:30:15;6.20;99.90
35607;DHT22;21729;58.392;15.656;2024-02-21T13:32:43;6.20;99.90
35607;DHT22;21729;58.392;15.656;2024-02-21T13:35:12;6.10;67.70
35607;DHT22;21729;58.392;15.656;2024-02-21T13:37:40;6.00;99.90
35607;DHT22;21729;58.392;15.656;2024-02-21T13:40:08;6.00;99.90
35607;DHT22;21729;58.392;15.656;2024-02-21T13:42:37;5.90;99.90
35607;DHT22;21729;58.392;15.656;2024-02-21T13:45:05;5.90;99.90
35607;DHT22;21729;58.392;15.656;2024-02-21T13:47:33;5.80;98.90
35607;DHT22;21729;58.392;15.656;2024-02-21T13:50:02;5.80;99.90
35607;DHT22;21729;58.392;15.656;2024-02-21T13:52:30;5.80;99.90
35607;DHT22;21729;58.392;15.656;2024-02-21T13:54:59;5.90;99.90
35607;DHT22;21729;58.392;15.656;2024-02-21T13:57:26;5.90;99.90
35607;DHT22;21729;58.392;15.656;2024-02-21T13:59:54;5.90;99.90
35607;DHT22;21729;58.392;15.656;2024-02-21T14:02:21;5.80;81.90
35607;DHT22;21729;58.392;15.656;2024-02-21T14:04:48;5.80;99.90
35607;DHT22;21729;58.392;15.656;2024-02-21T14:07:16;5.70;99.90
35607;DHT22;21729;58.392;15.656;2024-02-21T14:09:43;5.70;99.90
35607;DHT22;21729;58.392;15.656;2024-02-21T14:12:10;5.70;99.90
35607;DHT22;21729;58.392;15.656;2024-02-21T14:14:37;5.70;99.90
35607;DHT22;21729;58.392;15.656;2024-02-21T14:17:06;5.70;99.90
35607;DHT22;21729;58.392;15.656;2024-02-21T14:19:33;5.60;99.90
35607;DHT22;21729;58.392;15.656;2024-02-21T14:22:00;5.70;99.90
35607;DHT22;21729;58.392;15.656;2024-02-21T14:24:28;5.70;99.90
35607;DHT22;21729;58.392;15.656;2024-02-21T14:26:55;5.70;99.90
35607;DHT22;21729;58.392;15.656;2024-02-21T14:29:22;5.70;99.90
35607;DHT22;21729;58.392;15.656;2024-02-21T14:31:49;5.60;99.90
35607;DHT22;21729;58.392;15.656;2024-02-21T14:34:17;5.60;99.90
35607;DHT22;21729;58.392;15.656;2024-02-21T14:36:45;5.50;99.90
35607;DHT22;21729;58.392;15.656;2024-02-21T14:39:12;5.60;99.90
35607;DHT22;21729;58.392;15.656;2024-02-21T14:41:39;5.50;99.90
35607;DHT22;21729;58.392;15.656;2024-02-21T14:44:06;5.50;99.90
35607;DHT22;21729;58.392;15.656;2024-02-21T14:46:36;5.50;99.90
35607;DHT22;21729;58.392;15.656;2024-02-21T14:49:03;5.50;99.90
35607;DHT22;21729;58.392;15.656;2024-02-21T14:51:32;5.50;99.90
35607;DHT22;21729;58.392;15.656;2024-02-21T14:53:59;5.50;99.90
35607;DHT22;21729;58.392;15.656;2024-02-21T14:56:26;5.50;99.90
35607;DHT22;21729;58.392;15.656;2024-02-21T14:58:53;5.50;99.90
35607;DHT22;21729;58.392;15.656;2024-02-21T15:01:20;5.40;99.90
35607;DHT22;21729;58.392;15.656;2024-02-21T15:03:47;5.40;99.90
35607;DHT22;21729;58.392;15.656;2024-02-21T15:06:14;5.30;99.90
35607;DHT22;21729;58.392;15.656;2024-02-21T15:08:43;5.30;99.90
35607;DHT22;21729;58.392;15.656;2024-02-21T15:11:10;5.20;99.90
35607;DHT22;21729;58.392;15.656;2024-02-21T15:13:37;5.20;99.90
35607;DHT22;21729;58.392;15.656;2024-02-21T15:16:04;5.10;99.90
35607;DHT22;21729;58.392;15.656;2024-02-21T15:18:32;5.10;99.90
35607;DHT22;21729;58.392;15.656;2024-02-21T15:20:59;5.10;99.90
35607;DHT22;21729;58.392;15.656;2024-02-21T15:23:26;5.10;99.90
35607;DHT22;21729;58.392;15.656;2024-02-21T15:25:55;5.00;99.90
35607;DHT22;21729;58.392;15.656;2024-02-21T15:28:22;5.00;99.90
35607;DHT22;21729;58.392;15.656;2024-02-21T15:30:49;5.00;99.90
35607;DHT22;21729;58.392;15.656;2024-02-21T15:33:16;5.00;99.90
35607;DHT22;21729;58.392;15.656;2024-02-21T15:35:43;5.00;99.90
35607;DHT22;21729;58.392;15.656;2024-02-21T15:38:10;5.00;99.90
35607;DHT22;21729;58.392;15.656;2024-02-21T15:40:37;5.00;99.90
35607;DHT22;21729;58.392;15.656;2024-02-21T15:43:06;5.00;99.90
35607;DHT22;21729;58.392;15.656;2024-02-21T15:45:34;4.90;99.90